KBFI/BFI METAR and TAF weather

Enter ICAO airport designator
Station Type Date Time Source
KBFI METAR 2020/02/16 20:06 UTC NOAA

KBFI 162006Z 17009KT 10SM BKN024 BKN110 08/03 A3020 RMK AO2 T00780028


Station Type Date Time Source
KBFI Decoded METAR 2020/02/16 20:06 UTC NOAA

SEATTLE BOEING FIELD, WA, United States (KBFI) 47-33N 122-19W 4M
Feb 16, 2020 - 03:06 PM EST / 2020.02.16 2006 UTC
Wind: from the S (170 degrees) at 10 MPH (9 KT):0
Visibility: 10 mile(s):0
Sky conditions: mostly cloudy
Temperature: 46.0 F (7.8 C)
Dew Point: 37.0 F (2.8 C)
Relative Humidity: 70%
Pressure (altimeter): 30.2 in. Hg (1022 hPa)
ob: KBFI 162006Z 17009KT 10SM BKN024 BKN110 08/03 A3020 RMK AO2 T00780028
cycle: 20

Station Type Date Time Source
KBFI TAF 2020/02/16 18:22 UTC NOAA

TAF KBFI 161720Z 1618/1718 16008KT P6SM VCSH OVC015
FM162100 20012G18KT P6SM -SHRA BKN035 OVC050
FM170500 17007KT P6SM VCSH OVC040
FM171600 15005KT P6SM OVC035

Example: see airport list